sensor_id;sensor_type;location;lat;lon;timestamp;pressure;altitude;pressure_sealevel;temperature;humidity
45813;BME280;31519;45.408;10.962;2023-01-28T00:02:04;100766.13;;;6.95;54.94
45813;BME280;31519;45.408;10.962;2023-01-28T00:04:32;100764.06;;;6.87;54.81
45813;BME280;31519;45.408;10.962;2023-01-28T00:07:00;100766.09;;;7.00;53.86
45813;BME280;31519;45.408;10.962;2023-01-28T00:09:29;100762.72;;;6.84;54.46
45813;BME280;31519;45.408;10.962;2023-01-28T00:11:57;100760.84;;;6.90;53.99
45813;BME280;31519;45.408;10.962;2023-01-28T00:14:27;100765.38;;;6.79;54.24
45813;BME280;31519;45.408;10.962;2023-01-28T00:16:55;100764.16;;;6.61;54.58
45813;BME280;31519;45.408;10.962;2023-01-28T00:19:23;100760.16;;;6.69;54.77
45813;BME280;31519;45.408;10.962;2023-01-28T00:21:51;100757.75;;;6.78;54.59
45813;BME280;31519;45.408;10.962;2023-01-28T00:24:19;100765.38;;;6.79;54.44
45813;BME280;31519;45.408;10.962;2023-01-28T00:26:47;100769.06;;;6.88;53.92
45813;BME280;31519;45.408;10.962;2023-01-28T00:29:16;100762.44;;;6.91;54.32
45813;BME280;31519;45.408;10.962;2023-01-28T00:31:43;100769.88;;;6.79;54.32
45813;BME280;31519;45.408;10.962;2023-01-28T00:34:12;100775.47;;;6.82;54.75
45813;BME280;31519;45.408;10.962;2023-01-28T00:36:40;100772.00;;;6.82;55.15
45813;BME280;31519;45.408;10.962;2023-01-28T00:39:12;100773.00;;;6.96;54.67
45813;BME280;31519;45.408;10.962;2023-01-28T00:41:41;100778.31;;;6.96;54.42
45813;BME280;31519;45.408;10.962;2023-01-28T00:44:10;100779.81;;;7.07;54.47
45813;BME280;31519;45.408;10.962;2023-01-28T00:46:38;100783.31;;;6.92;54.52
45813;BME280;31519;45.408;10.962;2023-01-28T00:49:09;100786.88;;;7.22;53.68
45813;BME280;31519;45.408;10.962;2023-01-28T00:51:37;100778.31;;;6.91;54.53
45813;BME280;31519;45.408;10.962;2023-01-28T00:54:07;100780.69;;;6.92;53.47
45813;BME280;31519;45.408;10.962;2023-01-28T00:56:35;100775.09;;;6.99;53.31
45813;BME280;31519;45.408;10.962;2023-01-28T00:59:06;100776.44;;;6.96;53.46
45813;BME280;31519;45.408;10.962;2023-01-28T01:01:34;100776.44;;;6.96;53.48
45813;BME280;31519;45.408;10.962;2023-01-28T01:04:03;100782.28;;;6.93;54.12
45813;BME280;31519;45.408;10.962;2023-01-28T01:06:36;100784.31;;;7.06;53.65
45813;BME280;31519;45.408;10.962;2023-01-28T01:09:09;100790.09;;;7.19;54.14
45813;BME280;31519;45.408;10.962;2023-01-28T01:11:40;100790.91;;;7.19;54.22
45813;BME280;31519;45.408;10.962;2023-01-28T01:14:09;100795.06;;;7.30;53.92
45813;BME280;31519;45.408;10.962;2023-01-28T01:16:39;100792.03;;;7.47;52.74
45813;BME280;31519;45.408;10.962;2023-01-28T01:19:09;100790.22;;;7.42;53.28
45813;BME280;31519;45.408;10.962;2023-01-28T01:21:37;100802.19;;;7.35;53.88
45813;BME280;31519;45.408;10.962;2023-01-28T01:24:05;100793.38;;;7.44;53.07
45813;BME280;31519;45.408;10.962;2023-01-28T01:26:33;100797.75;;;7.20;53.40
45813;BME280;31519;45.408;10.962;2023-01-28T01:29:02;100798.22;;;7.32;53.38
45813;BME280;31519;45.408;10.962;2023-01-28T01:31:30;100795.56;;;7.32;53.46
45813;BME280;31519;45.408;10.962;2023-01-28T01:34:00;100793.56;;;7.53;53.23
45813;BME280;31519;45.408;10.962;2023-01-28T01:36:28;100788.94;;;7.35;53.27
45813;BME280;31519;45.408;10.962;2023-01-28T01:38:57;100793.13;;;7.41;52.70
45813;BME280;31519;45.408;10.962;2023-01-28T01:41:30;100792.38;;;7.35;52.99
45813;BME280;31519;45.408;10.962;2023-01-28T01:44:01;100794.28;;;7.25;53.56
45813;BME280;31519;45.408;10.962;2023-01-28T01:46:50;100790.25;;;7.37;53.30
45813;BME280;31519;45.408;10.962;2023-01-28T01:49:25;100801.72;;;7.62;52.76
45813;BME280;31519;45.408;10.962;2023-01-28T01:52:02;100805.59;;;7.40;52.24
45813;BME280;31519;45.408;10.962;2023-01-28T01:54:35;100802.53;;;7.62;51.99
45813;BME280;31519;45.408;10.962;2023-01-28T01:57:07;100804.28;;;7.77;51.06
45813;BME280;31519;45.408;10.962;2023-01-28T01:59:38;100797.22;;;7.62;51.70
45813;BME280;31519;45.408;10.962;2023-01-28T02:02:08;100797.13;;;7.38;52.43
45813;BME280;31519;45.408;10.962;2023-01-28T02:04:41;100800.88;;;7.32;52.69
45813;BME280;31519;45.408;10.962;2023-01-28T02:07:16;100802.75;;;7.27;53.54
45813;BME280;31519;45.408;10.962;2023-01-28T02:09:46;100799.03;;;7.33;52.91
45813;BME280;31519;45.408;10.962;2023-01-28T02:12:17;100797.75;;;7.20;53.51
45813;BME280;31519;45.408;10.962;2023-01-28T02:15:15;100795.25;;;7.39;53.02
45813;BME280;31519;45.408;10.962;2023-01-28T02:17:45;100798.41;;;7.46;52.89
45813;BME280;31519;45.408;10.962;2023-01-28T02:29:14;100802.72;;;7.32;53.64
45813;BME280;31519;45.408;10.962;2023-01-28T02:31:51;100795.69;;;7.56;53.49
45813;BME280;31519;45.408;10.962;2023-01-28T02:38:07;100804.19;;;7.53;54.13
45813;BME280;31519;45.408;10.962;2023-01-28T02:40:29;100802.44;;;7.72;54.12
45813;BME280;31519;45.408;10.962;2023-01-28T02:42:58;100806.38;;;7.41;54.73
45813;BME280;31519;45.408;10.962;2023-01-28T02:45:31;100804.03;;;7.34;55.38
45813;BME280;31519;45.408;10.962;2023-01-28T02:48:21;100803.59;;;7.17;55.25
45813;BME280;31519;45.408;10.962;2023-01-28T02:51:01;100801.78;;;7.12;55.81
45813;BME280;31519;45.408;10.962;2023-01-28T02:53:51;100800.28;;;7.40;55.90
45813;BME280;31519;45.408;10.962;2023-01-28T02:56:34;100799.84;;;7.28;55.82
45813;BME280;31519;45.408;10.962;2023-01-28T02:59:28;100801.19;;;7.21;56.22
45813;BME280;31519;45.408;10.962;2023-01-28T03:05:15;100796.53;;;7.02;56.62
45813;BME280;31519;45.408;10.962;2023-01-28T03:07:49;100794.94;;;7.01;55.84
45813;BME280;31519;45.408;10.962;2023-01-28T03:10:21;100789.22;;;6.79;56.71
45813;BME280;31519;45.408;10.962;2023-01-28T03:12:54;100785.91;;;7.07;56.28
45813;BME280;31519;45.408;10.962;2023-01-28T03:15:46;100783.78;;;7.09;55.45
45813;BME280;31519;45.408;10.962;2023-01-28T03:18:44;100779.91;;;6.92;55.57
45813;BME280;31519;45.408;10.962;2023-01-28T03:21:38;100777.16;;;7.12;54.98
45813;BME280;31519;45.408;10.962;2023-01-28T03:24:31;100774.84;;;7.00;55.34
45813;BME280;31519;45.408;10.962;2023-01-28T03:27:43;100775.97;;;6.84;55.86
45813;BME280;31519;45.408;10.962;2023-01-28T03:30:39;100768.78;;;6.90;56.28
45813;BME280;31519;45.408;10.962;2023-01-28T03:33:41;100767.50;;;6.87;55.79
45813;BME280;31519;45.408;10.962;2023-01-28T03:36:29;100765.31;;;6.99;55.33
45813;BME280;31519;45.408;10.962;2023-01-28T03:39:38;100768.53;;;6.91;55.27
45813;BME280;31519;45.408;10.962;2023-01-28T03:42:10;100753.97;;;6.84;55.96
45813;BME280;31519;45.408;10.962;2023-01-28T03:45:07;100747.19;;;6.67;56.50
45813;BME280;31519;45.408;10.962;2023-01-28T03:47:36;100755.63;;;6.69;56.64
45813;BME280;31519;45.408;10.962;2023-01-28T03:50:11;100761.75;;;6.65;56.37
45813;BME280;31519;45.408;10.962;2023-01-28T03:52:50;100755.75;;;6.39;57.35
45813;BME280;31519;45.408;10.962;2023-01-28T03:55:26;100764.44;;;6.55;57.10
45813;BME280;31519;45.408;10.962;2023-01-28T03:57:54;100776.66;;;6.46;56.62
45813;BME280;31519;45.408;10.962;2023-01-28T04:00:23;100783.81;;;6.35;57.09
45813;BME280;31519;45.408;10.962;2023-01-28T04:02:51;100774.75;;;6.56;57.14
45813;BME280;31519;45.408;10.962;2023-01-28T04:05:22;100785.63;;;6.55;57.09
45813;BME280;31519;45.408;10.962;2023-01-28T04:07:54;100779.47;;;6.69;56.99
45813;BME280;31519;45.408;10.962;2023-01-28T04:10:43;100775.50;;;6.67;56.85
45813;BME280;31519;45.408;10.962;2023-01-28T04:13:25;100788.78;;;6.52;56.79
45813;BME280;31519;45.408;10.962;2023-01-28T04:15:54;100788.53;;;6.48;56.60
45813;BME280;31519;45.408;10.962;2023-01-28T04:18:22;100796.97;;;6.55;56.30
45813;BME280;31519;45.408;10.962;2023-01-28T04:20:56;100794.09;;;6.47;56.38
45813;BME280;31519;45.408;10.962;2023-01-28T04:23:25;100795.13;;;6.56;55.99
45813;BME280;31519;45.408;10.962;2023-01-28T04:25:54;100792.25;;;6.47;56.13
45813;BME280;31519;45.408;10.962;2023-01-28T04:28:22;100799.13;;;6.43;56.39
45813;BME280;31519;45.408;10.962;2023-01-28T04:30:51;100798.06;;;6.44;56.41
45813;BME280;31519;45.408;10.962;2023-01-28T04:33:32;100814.44;;;6.56;55.35
45813;BME280;31519;45.408;10.962;2023-01-28T04:36:13;100811.81;;;6.51;55.63
45813;BME280;31519;45.408;10.962;2023-01-28T04:38:45;100812.59;;;6.52;56.46
45813;BME280;31519;45.408;10.962;2023-01-28T04:41:31;100813.72;;;6.36;57.28
45813;BME280;31519;45.408;10.962;2023-01-28T04:44:07;100811.34;;;5.73;59.07
45813;BME280;31519;45.408;10.962;2023-01-28T04:47:02;100813.19;;;5.73;59.53
45813;BME280;31519;45.408;10.962;2023-01-28T04:49:45;100820.00;;;5.33;61.04
45813;BME280;31519;45.408;10.962;2023-01-28T04:52:26;100816.09;;;5.61;60.79
45813;BME280;31519;45.408;10.962;2023-01-28T04:54:56;100824.03;;;5.82;60.14
45813;BME280;31519;45.408;10.962;2023-01-28T04:57:25;100824.28;;;5.60;60.84
45813;BME280;31519;45.408;10.962;2023-01-28T04:59:53;100830.94;;;5.88;60.00
45813;BME280;31519;45.408;10.962;2023-01-28T05:02:22;100831.16;;;5.66;60.42
45813;BME280;31519;45.408;10.962;2023-01-28T05:04:50;100834.28;;;5.43;60.84
45813;BME280;31519;45.408;10.962;2023-01-28T05:07:54;100837.50;;;5.65;60.42
45813;BME280;31519;45.408;10.962;2023-01-28T05:10:23;100839.03;;;5.30;60.76
45813;BME280;31519;45.408;10.962;2023-01-28T05:12:53;100838.97;;;5.15;60.58
45813;BME280;31519;45.408;10.962;2023-01-28T05:15:22;100833.41;;;5.12;60.99
45813;BME280;31519;45.408;10.962;2023-01-28T05:17:54;100844.19;;;5.00;61.42
45813;BME280;31519;45.408;10.962;2023-01-28T05:20:25;100845.00;;;5.06;61.37
45813;BME280;31519;45.408;10.962;2023-01-28T05:22:58;100838.63;;;4.91;61.33
45813;BME280;31519;45.408;10.962;2023-01-28T05:25:35;100854.97;;;4.41;63.85
45813;BME280;31519;45.408;10.962;2023-01-28T05:28:04;100852.22;;;4.68;63.21
45813;BME280;31519;45.408;10.962;2023-01-28T05:30:32;100868.09;;;4.78;63.21
45813;BME280;31519;45.408;10.962;2023-01-28T05:33:00;100853.72;;;5.06;61.43
45813;BME280;31519;45.408;10.962;2023-01-28T05:35:29;100854.13;;;5.60;60.46
45813;BME280;31519;45.408;10.962;2023-01-28T05:37:57;100855.78;;;5.87;60.19
45813;BME280;31519;45.408;10.962;2023-01-28T05:40:26;100854.69;;;5.82;60.46
45813;BME280;31519;45.408;10.962;2023-01-28T05:42:55;100856.88;;;5.96;60.40
45813;BME280;31519;45.408;10.962;2023-01-28T05:45:53;100852.34;;;5.91;60.06
45813;BME280;31519;45.408;10.962;2023-01-28T05:48:33;100872.19;;;5.94;60.00
45813;BME280;31519;45.408;10.962;2023-01-28T05:51:26;100874.81;;;5.89;59.04
45813;BME280;31519;45.408;10.962;2023-01-28T05:53:57;100872.97;;;5.89;57.90
45813;BME280;31519;45.408;10.962;2023-01-28T05:56:25;100877.16;;;5.80;58.33
45813;BME280;31519;45.408;10.962;2023-01-28T05:58:53;100885.91;;;5.80;59.15
45813;BME280;31519;45.408;10.962;2023-01-28T06:01:21;100887.25;;;5.98;59.13
45813;BME280;31519;45.408;10.962;2023-01-28T06:03:54;100896.47;;;5.86;59.83
45813;BME280;31519;45.408;10.962;2023-01-28T06:06:22;100888.25;;;5.82;59.84
45813;BME280;31519;45.408;10.962;2023-01-28T06:08:50;100896.22;;;5.87;59.74
45813;BME280;31519;45.408;10.962;2023-01-28T06:11:25;100903.66;;;6.10;59.29
45813;BME280;31519;45.408;10.962;2023-01-28T06:13:58;100901.53;;;6.07;59.60
45813;BME280;31519;45.408;10.962;2023-01-28T06:16:46;100913.44;;;6.20;59.45
45813;BME280;31519;45.408;10.962;2023-01-28T06:19:36;100913.44;;;5.90;60.11
45813;BME280;31519;45.408;10.962;2023-01-28T06:22:05;100923.66;;;5.71;60.42
45813;BME280;31519;45.408;10.962;2023-01-28T06:24:34;100919.69;;;5.58;60.99
45813;BME280;31519;45.408;10.962;2023-01-28T06:27:02;100927.53;;;5.43;61.51
45813;BME280;31519;45.408;10.962;2023-01-28T06:29:32;100927.78;;;5.36;62.06
45813;BME280;31519;45.408;10.962;2023-01-28T06:32:00;100919.09;;;5.46;62.33
45813;BME280;31519;45.408;10.962;2023-01-28T06:34:28;100935.28;;;5.65;62.08
45813;BME280;31519;45.408;10.962;2023-01-28T06:36:56;100938.66;;;5.55;62.26
45813;BME280;31519;45.408;10.962;2023-01-28T06:39:26;100934.75;;;5.63;62.50
45813;BME280;31519;45.408;10.962;2023-01-28T06:41:59;100938.44;;;5.57;61.50
45813;BME280;31519;45.408;10.962;2023-01-28T06:44:28;100943.19;;;5.65;61.75
45813;BME280;31519;45.408;10.962;2023-01-28T06:46:56;100940.81;;;5.58;62.28
45813;BME280;31519;45.408;10.962;2023-01-28T06:49:24;100944.50;;;5.57;62.18
45813;BME280;31519;45.408;10.962;2023-01-28T06:51:53;100946.91;;;5.59;62.24
45813;BME280;31519;45.408;10.962;2023-01-28T06:54:21;100941.91;;;5.67;62.33
45813;BME280;31519;45.408;10.962;2023-01-28T06:56:49;100946.63;;;5.65;62.42
45813;BME280;31519;45.408;10.962;2023-01-28T06:59:17;100955.34;;;5.61;62.57
45813;BME280;31519;45.408;10.962;2023-01-28T07:01:45;100954.28;;;5.57;62.75
45813;BME280;31519;45.408;10.962;2023-01-28T07:04:15;100956.34;;;5.40;63.17
45813;BME280;31519;45.408;10.962;2023-01-28T07:06:43;100964.75;;;5.36;63.97
45813;BME280;31519;45.408;10.962;2023-01-28T07:09:11;100950.59;;;5.63;63.72
45813;BME280;31519;45.408;10.962;2023-01-28T07:11:39;100951.38;;;5.53;63.28
45813;BME280;31519;45.408;10.962;2023-01-28T07:14:08;100956.13;;;5.56;63.34
45813;BME280;31519;45.408;10.962;2023-01-28T07:16:36;100956.41;;;5.65;63.72
45813;BME280;31519;45.408;10.962;2023-01-28T07:19:05;100958.00;;;5.66;63.56
45813;BME280;31519;45.408;10.962;2023-01-28T07:21:34;100961.00;;;5.90;63.19
45813;BME280;31519;45.408;10.962;2023-01-28T07:24:02;100958.94;;;6.07;61.97
45813;BME280;31519;45.408;10.962;2023-01-28T07:26:32;100956.25;;;5.97;62.57
45813;BME280;31519;45.408;10.962;2023-01-28T07:29:00;100958.38;;;5.95;62.84
45813;BME280;31519;45.408;10.962;2023-01-28T07:31:28;100962.13;;;6.14;62.04
45813;BME280;31519;45.408;10.962;2023-01-28T07:33:58;100963.94;;;6.03;62.20
45813;BME280;31519;45.408;10.962;2023-01-28T07:36:26;100963.19;;;6.48;61.82
45813;BME280;31519;45.408;10.962;2023-01-28T07:38:54;100969.28;;;6.54;61.53
45813;BME280;31519;45.408;10.962;2023-01-28T07:41:22;100970.34;;;6.58;61.91
45813;BME280;31519;45.408;10.962;2023-01-28T07:43:50;100973.16;;;7.07;60.31
45813;BME280;31519;45.408;10.962;2023-01-28T07:46:18;100982.47;;;9.14;54.63
45813;BME280;31519;45.408;10.962;2023-01-28T07:48:47;100978.09;;;9.71;50.55
45813;BME280;31519;45.408;10.962;2023-01-28T07:51:15;100974.94;;;10.06;49.08
45813;BME280;31519;45.408;10.962;2023-01-28T07:53:43;100980.69;;;9.33;50.41
45813;BME280;31519;45.408;10.962;2023-01-28T07:56:11;100982.13;;;8.68;52.27
45813;BME280;31519;45.408;10.962;2023-01-28T07:58:40;100982.25;;;8.53;52.64
45813;BME280;31519;45.408;10.962;2023-01-28T08:01:08;100988.56;;;8.23;53.51
45813;BME280;31519;45.408;10.962;2023-01-28T08:03:37;100991.00;;;8.15;53.43
45813;BME280;31519;45.408;10.962;2023-01-28T08:06:04;100991.81;;;8.15;52.82
45813;BME280;31519;45.408;10.962;2023-01-28T08:08:33;100997.50;;;8.37;52.68
45813;BME280;31519;45.408;10.962;2023-01-28T08:11:10;100997.97;;;8.44;52.09
45813;BME280;31519;45.408;10.962;2023-01-28T08:13:38;101004.03;;;8.84;51.75
45813;BME280;31519;45.408;10.962;2023-01-28T08:16:06;101010.28;;;8.98;51.29
45813;BME280;31519;45.408;10.962;2023-01-28T08:18:35;101019.50;;;8.77;50.08
45813;BME280;31519;45.408;10.962;2023-01-28T08:21:03;101014.75;;;8.74;50.58
45813;BME280;31519;45.408;10.962;2023-01-28T08:23:33;101018.50;;;8.68;49.23
45813;BME280;31519;45.408;10.962;2023-01-28T08:26:01;101022.28;;;8.62;49.24
45813;BME280;31519;45.408;10.962;2023-01-28T08:28:29;101025.63;;;9.06;49.18
45813;BME280;31519;45.408;10.962;2023-01-28T08:30:59;101024.56;;;9.31;48.07
45813;BME280;31519;45.408;10.962;2023-01-28T08:33:28;101032.03;;;9.29;47.34
45813;BME280;31519;45.408;10.962;2023-01-28T08:35:56;101030.72;;;9.26;46.90
45813;BME280;31519;45.408;10.962;2023-01-28T08:38:25;101038.28;;;9.67;46.83
45813;BME280;31519;45.408;10.962;2023-01-28T08:40:55;101039.72;;;9.30;47.04
45813;BME280;31519;45.408;10.962;2023-01-28T08:43:25;101041.41;;;9.93;46.13
45813;BME280;31519;45.408;10.962;2023-01-28T08:45:53;101048.50;;;9.55;46.67
45813;BME280;31519;45.408;10.962;2023-01-28T08:48:21;101046.72;;;9.21;47.13
45813;BME280;31519;45.408;10.962;2023-01-28T08:50:49;101057.41;;;9.16;47.87
45813;BME280;31519;45.408;10.962;2023-01-28T08:53:19;101059.03;;;9.12;48.14
45813;BME280;31519;45.408;10.962;2023-01-28T08:55:47;101058.16;;;9.69;47.75
45813;BME280;31519;45.408;10.962;2023-01-28T08:58:16;101063.94;;;9.76;47.75
45813;BME280;31519;45.408;10.962;2023-01-28T09:00:45;101062.75;;;9.88;46.63
45813;BME280;31519;45.408;10.962;2023-01-28T09:03:14;101067.94;;;8.98;47.26
45813;BME280;31519;45.408;10.962;2023-01-28T09:05:42;101071.88;;;9.34;46.73
45813;BME280;31519;45.408;10.962;2023-01-28T09:08:13;101076.91;;;9.83;46.97
45813;BME280;31519;45.408;10.962;2023-01-28T09:10:42;101080.09;;;10.04;46.26
45813;BME280;31519;45.408;10.962;2023-01-28T09:13:13;101086.19;;;9.38;46.75
45813;BME280;31519;45.408;10.962;2023-01-28T09:15:42;101085.34;;;9.43;46.71
45813;BME280;31519;45.408;10.962;2023-01-28T09:18:11;101084.56;;;10.08;46.29
45813;BME280;31519;45.408;10.962;2023-01-28T09:20:39;101087.88;;;10.43;45.09
45813;BME280;31519;45.408;10.962;2023-01-28T09:23:08;101092.59;;;10.64;44.43
45813;BME280;31519;45.408;10.962;2023-01-28T09:25:36;101096.50;;;10.53;44.40
45813;BME280;31519;45.408;10.962;2023-01-28T09:28:05;101101.66;;;10.63;44.95
45813;BME280;31519;45.408;10.962;2023-01-28T09:30:34;101096.03;;;9.61;46.21
45813;BME280;31519;45.408;10.962;2023-01-28T09:33:06;101091.84;;;10.78;44.83
45813;BME280;31519;45.408;10.962;2023-01-28T09:35:35;101097.03;;;11.20;42.93
45813;BME280;31519;45.408;10.962;2023-01-28T09:38:03;101099.53;;;10.47;43.78
45813;BME280;31519;45.408;10.962;2023-01-28T09:40:43;101100.72;;;10.73;42.59
45813;BME280;31519;45.408;10.962;2023-01-28T09:45:59;101101.16;;;10.24;43.27
45813;BME280;31519;45.408;10.962;2023-01-28T09:48:42;101112.03;;;10.84;42.95
45813;BME280;31519;45.408;10.962;2023-01-28T09:51:33;101094.44;;;11.61;41.71
45813;BME280;31519;45.408;10.962;2023-01-28T09:54:28;101100.59;;;11.89;41.06
45813;BME280;31519;45.408;10.962;2023-01-28T09:57:05;101106.97;;;12.29;40.46
45813;BME280;31519;45.408;10.962;2023-01-28T09:59:35;101102.34;;;12.57;39.57
45813;BME280;31519;45.408;10.962;2023-01-28T10:05:22;101106.16;;;12.28;39.19
45813;BME280;31519;45.408;10.962;2023-01-28T10:11:15;101115.53;;;12.75;39.10
45813;BME280;31519;45.408;10.962;2023-01-28T10:14:00;101105.03;;;13.01;38.86
45813;BME280;31519;45.408;10.962;2023-01-28T10:19:12;101109.16;;;13.07;37.56
45813;BME280;31519;45.408;10.962;2023-01-28T10:21:54;101098.25;;;13.17;37.57
45813;BME280;31519;45.408;10.962;2023-01-28T10:24:35;101098.56;;;12.22;38.14
45813;BME280;31519;45.408;10.962;2023-01-28T10:27:18;101091.59;;;12.93;37.91
45813;BME280;31519;45.408;10.962;2023-01-28T10:29:49;101095.69;;;13.43;37.23
45813;BME280;31519;45.408;10.962;2023-01-28T10:32:22;101103.41;;;13.84;37.04
45813;BME280;31519;45.408;10.962;2023-01-28T10:34:53;101099.19;;;13.92;35.50
45813;BME280;31519;45.408;10.962;2023-01-28T10:37:22;101099.25;;;14.26;36.25
45813;BME280;31519;45.408;10.962;2023-01-28T10:39:52;101098.34;;;14.82;35.18
45813;BME280;31519;45.408;10.962;2023-01-28T10:42:32;101095.34;;;14.49;35.08
45813;BME280;31519;45.408;10.962;2023-01-28T10:45:22;101085.03;;;15.12;33.99
45813;BME280;31519;45.408;10.962;2023-01-28T10:47:55;101078.03;;;14.47;35.13
45813;BME280;31519;45.408;10.962;2023-01-28T10:50:29;101083.97;;;14.95;34.30
45813;BME280;31519;45.408;10.962;2023-01-28T10:52:59;101080.53;;;14.60;34.48
45813;BME280;31519;45.408;10.962;2023-01-28T10:55:37;101082.09;;;14.87;34.02
45813;BME280;31519;45.408;10.962;2023-01-28T10:58:19;101066.78;;;15.43;33.83
45813;BME280;31519;45.408;10.962;2023-01-28T11:00:56;101072.00;;;14.24;34.68
45813;BME280;31519;45.408;10.962;2023-01-28T11:03:25;101064.00;;;13.76;35.18
45813;BME280;31519;45.408;10.962;2023-01-28T11:05:55;101055.28;;;14.18;34.54
45813;BME280;31519;45.408;10.962;2023-01-28T11:08:26;101055.16;;;15.22;33.83
45813;BME280;31519;45.408;10.962;2023-01-28T11:10:56;101053.50;;;16.05;32.81
45813;BME280;31519;45.408;10.962;2023-01-28T11:13:28;101051.28;;;15.02;33.11
45813;BME280;31519;45.408;10.962;2023-01-28T11:16:05;101060.91;;;15.03;33.36
45813;BME280;31519;45.408;10.962;2023-01-28T11:18:49;101055.34;;;15.08;33.77
45813;BME280;31519;45.408;10.962;2023-01-28T11:21:21;101046.31;;;15.68;32.37
45813;BME280;31519;45.408;10.962;2023-01-28T11:24:04;101046.16;;;16.76;31.61
45813;BME280;31519;45.408;10.962;2023-01-28T11:26:36;101039.59;;;16.65;31.62
45813;BME280;31519;45.408;10.962;2023-01-28T11:29:05;101034.69;;;15.84;31.89
45813;BME280;31519;45.408;10.962;2023-01-28T11:31:42;101035.03;;;16.45;31.33
45813;BME280;31519;45.408;10.962;2023-01-28T11:34:15;101036.72;;;15.87;32.04
45813;BME280;31519;45.408;10.962;2023-01-28T11:36:52;101033.69;;;16.72;31.02
45813;BME280;31519;45.408;10.962;2023-01-28T11:39:23;101029.09;;;17.17;30.26
45813;BME280;31519;45.408;10.962;2023-01-28T11:42:15;101024.06;;;17.64;29.13
45813;BME280;31519;45.408;10.962;2023-01-28T11:44:46;101028.31;;;17.90;28.54
45813;BME280;31519;45.408;10.962;2023-01-28T11:47:38;101019.28;;;17.01;29.57
45813;BME280;31519;45.408;10.962;2023-01-28T11:56:08;101000.59;;;17.16;28.75
45813;BME280;31519;45.408;10.962;2023-01-28T12:07:08;100996.72;;;14.98;29.72
45813;BME280;31519;45.408;10.962;2023-01-28T12:09:57;100989.22;;;16.00;28.16
45813;BME280;31519;45.408;10.962;2023-01-28T12:18:22;100983.72;;;16.50;27.98
45813;BME280;31519;45.408;10.962;2023-01-28T12:21:05;100982.00;;;16.66;28.03
45813;BME280;31519;45.408;10.962;2023-01-28T12:26:44;100970.28;;;15.76;30.43
45813;BME280;31519;45.408;10.962;2023-01-28T12:37:58;100978.06;;;16.10;30.74
45813;BME280;31519;45.408;10.962;2023-01-28T12:46:08;100972.03;;;13.98;32.98
45813;BME280;31519;45.408;10.962;2023-01-28T12:48:46;100969.63;;;15.58;31.29
45813;BME280;31519;45.408;10.962;2023-01-28T12:51:22;100971.31;;;17.03;28.62
45813;BME280;31519;45.408;10.962;2023-01-28T12:54:09;100973.44;;;17.21;27.93
45813;BME280;31519;45.408;10.962;2023-01-28T12:56:43;100965.13;;;15.33;29.41
45813;BME280;31519;45.408;10.962;2023-01-28T13:02:34;100955.25;;;15.45;29.48
45813;BME280;31519;45.408;10.962;2023-01-28T13:05:11;100961.63;;;15.91;29.71
45813;BME280;31519;45.408;10.962;2023-01-28T13:07:58;100965.66;;;16.83;28.07
45813;BME280;31519;45.408;10.962;2023-01-28T13:10:31;100966.34;;;16.93;28.03
45813;BME280;31519;45.408;10.962;2023-01-28T13:13:04;100966.06;;;16.61;28.60
45813;BME280;31519;45.408;10.962;2023-01-28T13:15:35;100957.97;;;16.49;28.52
45813;BME280;31519;45.408;10.962;2023-01-28T13:20:55;100965.75;;;14.45;31.18
45813;BME280;31519;45.408;10.962;2023-01-28T13:26:10;100967.81;;;16.90;29.00
45813;BME280;31519;45.408;10.962;2023-01-28T13:28:39;100968.72;;;17.55;28.00
45813;BME280;31519;45.408;10.962;2023-01-28T13:31:09;100972.13;;;16.58;28.93
45813;BME280;31519;45.408;10.962;2023-01-28T13:34:00;100971.69;;;16.68;28.43
45813;BME280;31519;45.408;10.962;2023-01-28T13:36:43;100975.56;;;16.05;29.39
45813;BME280;31519;45.408;10.962;2023-01-28T13:41:43;100980.94;;;16.26;30.01
45813;BME280;31519;45.408;10.962;2023-01-28T13:46:55;100979.38;;;15.25;29.92
45813;BME280;31519;45.408;10.962;2023-01-28T13:49:31;100990.97;;;14.44;30.89
45813;BME280;31519;45.408;10.962;2023-01-28T13:55:12;100982.91;;;15.08;30.41
45813;BME280;31519;45.408;10.962;2023-01-28T14:00:36;100992.09;;;15.74;29.69
45813;BME280;31519;45.408;10.962;2023-01-28T14:08:48;100989.59;;;17.09;27.97
45813;BME280;31519;45.408;10.962;2023-01-28T14:16:47;101004.13;;;18.61;26.15
45813;BME280;31519;45.408;10.962;2023-01-28T14:19:26;101012.91;;;18.30;26.49
45813;BME280;31519;45.408;10.962;2023-01-28T14:21:55;101000.94;;;19.65;25.18
45813;BME280;31519;45.408;10.962;2023-01-28T14:24:24;101006.41;;;18.59;25.75
45813;BME280;31519;45.408;10.962;2023-01-28T14:27:07;101007.72;;;18.37;26.42
45813;BME280;31519;45.408;10.962;2023-01-28T14:29:57;101017.69;;;18.92;25.60
45813;BME280;31519;45.408;10.962;2023-01-28T14:32:30;101006.53;;;19.41;24.93
45813;BME280;31519;45.408;10.962;2023-01-28T14:35:06;101016.25;;;18.67;25.49
45813;BME280;31519;45.408;10.962;2023-01-28T14:37:37;101007.22;;;19.07;25.53
45813;BME280;31519;45.408;10.962;2023-01-28T14:40:06;101009.09;;;21.03;23.47
45813;BME280;31519;45.408;10.962;2023-01-28T14:42:41;101012.06;;;21.70;22.58
45813;BME280;31519;45.408;10.962;2023-01-28T14:48:00;101028.38;;;22.67;21.81
45813;BME280;31519;45.408;10.962;2023-01-28T14:56:30;101024.31;;;21.60;22.37
45813;BME280;31519;45.408;10.962;2023-01-28T15:01:43;101027.78;;;17.72;26.27
45813;BME280;31519;45.408;10.962;2023-01-28T15:04:42;101040.34;;;16.87;27.35
45813;BME280;31519;45.408;10.962;2023-01-28T15:07:21;101035.16;;;16.49;28.01
45813;BME280;31519;45.408;10.962;2023-01-28T15:10:06;101034.06;;;16.08;29.02